Latest Weather Observations for Barrow Island

IDW60801

Issued at 9:43 am WST Thursday 24 May 2018 (issued every 10 minutes, with the page automatically refreshed every 10 minutes)

About weather observations | Map of weather stations | Latest weather observations for WA | Other Formats
Station Details ID: 005094 Name: BARROW ISLAND AIRPORT Lat: -20.87 Lon: 115.41 Height: 6.4 m
Data from the previous 72 hours. | See also: Recent months at Barrow Island
Date/Time
WST
Temp
°C
App
Temp
°C
Dew
Point
°C
Rel
Hum
%
Delta-T
°C
Wind Press
QNH
hPa
Press
MSL
hPa
Rain since
9am
mm
Dir  Spd
km/h
Gust
km/h
Spd
kts
Gust
kts
24/09:30am 24.9 24.3 18.8 69 3.9 E 20 24 11 13 1015.5 - 0.0
24/09:00am 24.8 24.0 18.5 68 4.0 E 20 22 11 12 1015.6 1015.6 0.0
24/08:30am 24.5 23.8 18.2 68 4.0 E 19 22 10 12 1015.5 - 0.0
24/08:00am 24.0 22.6 16.5 63 4.6 E 19 20 10 11 1015.4 - 0.0
24/07:30am 22.9 21.9 16.7 68 3.8 E 17 20 9 11 1015.3 - 0.0
24/07:00am 22.7 21.4 16.9 70 3.6 ESE 19 22 10 12 1015.1 - 0.0
24/06:30am 22.3 21.9 18.1 77 2.6 ESE 17 19 9 10 1014.9 - 0.0
24/06:00am 22.1 22.7 19.5 85 1.7 ESE 15 17 8 9 1014.7 1014.7 0.0
24/05:30am 21.5 22.7 19.8 90 1.1 E 13 15 7 8 1014.5 - 0.0
24/05:00am 20.0 22.9 18.3 90 1.1 CALM 0 0 0 0 1014.4 - 0.0
24/04:30am 21.6 24.0 19.7 89 1.2 S 6 6 3 3 1014.2 - 0.0
24/04:00am 21.1 23.3 19.2 89 1.2 S 6 9 3 5 1014.1 - 0.0
24/03:30am 20.3 23.2 18.2 88 1.3 CALM 0 0 0 0 1014.1 - 0.0
24/03:00am 20.0 22.7 17.8 87 1.4 CALM 0 0 0 0 1014.0 1014.0 0.0
24/02:30am 19.5 21.9 17.1 86 1.5 CALM 0 0 0 0 1014.3 - 0.0
24/02:00am 19.9 22.3 16.9 83 1.8 CALM 0 4 0 2 1014.6 - 0.0
24/01:30am 20.9 22.8 17.7 82 2.0 NNE 4 6 2 3 1014.7 - 0.0
24/01:00am 20.7 22.1 17.7 83 1.8 NNE 7 9 4 5 1015.0 - 0.0
24/12:30am 20.2 20.6 17.2 83 1.8 N 11 13 6 7 1015.0 - 0.0
24/12:00am 20.4 20.7 17.0 81 2.1 N 11 13 6 7 1015.1 1015.1 0.0
 
Date/Time
WST
Temp
°C
App
Temp
°C
Dew
Point
°C
Rel
Hum
%
Delta-T
°C
Wind Press
QNH
hPa
Press
MSL
hPa
Rain since
9am
mm
Dir  Spd
km/h
Gust
km/h
Spd
kts
Gust
kts
23/11:30pm 19.9 20.3 16.3 80 2.2 N 9 13 5 7 1015.2 - 0.0
23/11:00pm 20.2 20.6 16.2 78 2.4 N 9 9 5 5 1015.3 - 0.0
23/10:30pm 20.5 20.9 16.3 77 2.5 N 9 11 5 6 1015.4 - 0.0
23/10:00pm 21.4 21.4 17.2 77 2.6 N 13 15 7 8 1015.5 - 0.0
23/09:30pm 21.6 22.1 17.4 77 2.6 NNE 11 13 6 7 1015.6 - 0.0
23/09:00pm 23.3 24.0 18.8 76 2.8 NE 13 15 7 8 1015.8 1015.8 0.0
23/08:30pm 23.7 23.9 18.6 73 3.2 NE 15 17 8 9 1015.9 - 0.0
23/08:00pm 23.8 23.6 18.4 72 3.4 NE 17 20 9 11 1015.7 - 0.0
23/07:30pm 23.8 22.9 18.2 71 3.5 NE 20 24 11 13 1015.4 - 0.0
23/07:00pm 23.9 22.6 18.1 70 3.6 NE 22 24 12 13 1015.2 - 0.0
23/06:30pm 24.0 22.8 18.4 71 3.5 NE 22 26 12 14 1015.0 - 0.0
23/06:00pm 23.9 21.9 18.3 71 3.5 NE 26 30 14 16 1014.6 1014.6 0.0
23/05:30pm 24.0 22.0 18.4 71 3.5 NE 26 30 14 16 1014.6 - 0.0
23/05:00pm 24.4 22.4 18.3 69 3.8 NE 26 30 14 16 1014.3 - 0.0
23/04:30pm 24.5 22.0 18.0 67 4.1 NE 28 32 15 17 1014.3 - 0.0
23/04:00pm 24.7 22.5 17.9 66 4.3 ENE 26 32 14 17 1014.4 - 0.0
23/03:30pm 24.7 21.6 17.4 64 4.5 NE 30 33 16 18 1014.3 - 0.0
23/03:00pm 25.0 21.7 18.0 65 4.4 ENE 32 35 17 19 1014.4 1014.4 0.0
23/02:30pm 25.1 21.4 17.0 60 5.0 NE 32 37 17 20 1014.5 - 0.0
23/02:00pm 25.2 21.9 17.1 60 5.0 ENE 30 33 16 18 1014.6 - 0.0
23/01:30pm 25.3 22.3 17.7 62 4.8 ENE 30 35 16 19 1014.8 - 0.0
23/01:00pm 24.9 21.0 16.9 61 4.9 ENE 33 39 18 21 1015.1 - 0.0
23/12:30pm 24.8 20.8 16.8 61 4.9 ENE 33 39 18 21 1015.3 - 0.0
23/12:00pm 24.6 19.8 16.6 61 4.9 ENE 37 43 20 23 1015.8 1015.8 0.0
23/11:30am 24.3 18.5 16.0 60 5.0 ENE 41 46 22 25 1016.1 - 0.0
23/11:00am 24.2 18.9 16.2 61 4.9 ENE 39 46 21 25 1016.4 - 0.0
23/10:30am 24.1 18.3 16.1 61 4.9 ENE 41 44 22 24 1016.7 - 0.0
23/10:00am 24.0 18.0 16.5 63 4.6 ENE 43 48 23 26 1016.8 - 0.0
23/09:30am 23.9 18.8 16.9 65 4.3 ENE 39 48 21 26 1016.9 - 0.0
23/09:00am 23.5 17.8 16.3 64 4.4 ENE 41 44 22 24 1016.9 1016.9 0.0
23/08:30am 23.5 18.8 16.8 66 4.1 E 37 44 20 24 1016.8 - 0.0
23/08:00am 23.4 19.8 17.6 70 3.6 ENE 33 39 18 21 1016.9 - 0.0
23/07:30am 23.1 19.8 18.0 73 3.2 ENE 32 37 17 20 1016.5 - 0.0
23/07:00am 23.0 19.6 18.1 74 3.1 ENE 33 39 18 21 1016.2 - 0.0
23/06:30am 22.9 19.9 18.7 77 2.7 E 32 37 17 20 1015.8 - 0.0
23/06:00am 22.8 21.6 20.1 85 1.7 E 26 32 14 17 1015.8 1015.8 0.0
23/05:30am 22.5 20.5 19.1 81 2.2 E 28 32 15 17 1015.4 - 0.0
23/05:00am 22.4 20.4 18.4 78 2.5 E 26 30 14 16 1015.4 - 0.0
23/04:30am 22.3 19.7 17.7 75 2.9 E 28 32 15 17 1015.5 - 0.0
23/04:00am 22.4 20.8 19.2 82 2.0 ESE 26 32 14 17 1015.6 - 0.0
23/03:30am 22.4 21.1 19.9 86 1.6 E 26 30 14 16 1015.5 - 0.0
23/03:00am 22.5 22.9 20.6 89 1.2 ESE 19 20 10 11 1015.6 1015.6 0.0
23/02:30am 22.3 23.8 20.6 90 1.1 ESE 13 15 7 8 1015.7 - 0.0
23/02:00am 22.4 24.4 20.7 90 1.1 E 11 13 6 7 1015.8 - 0.0
23/01:30am 22.6 23.9 20.9 90 1.1 ESE 15 17 8 9 1015.8 - 0.0
23/01:00am 22.2 24.4 20.3 89 1.2 SE 9 11 5 6 1015.9 - 0.0
23/12:30am 22.4 25.0 20.5 89 1.2 ESE 7 9 4 5 1016.0 - 0.0
23/12:00am 21.9 24.3 19.6 87 1.5 E 6 7 3 4 1016.2 1016.2 0.0
 
Date/Time
WST
Temp
°C
App
Temp
°C
Dew
Point
°C
Rel
Hum
%
Delta-T
°C
Wind Press
QNH
hPa
Press
MSL
hPa
Rain since
9am
mm
Dir  Spd
km/h
Gust
km/h
Spd
kts
Gust
kts
22/11:30pm 20.6 21.5 17.6 83 1.8 NNE 9 11 5 6 1016.1 - 0.0
22/11:00pm 20.6 21.1 17.4 82 2.0 N 11 13 6 7 1016.2 - 0.0
22/10:30pm 20.2 20.0 16.6 80 2.2 N 13 13 7 7 1016.3 - 0.0
22/10:00pm 21.1 22.3 17.3 79 2.3 N 7 9 4 5 1016.5 - 0.0
22/09:30pm 21.0 21.7 17.0 78 2.4 N 9 9 5 5 1016.6 - 0.0
22/09:00pm 20.9 21.0 16.5 76 2.7 N 11 13 6 7 1016.8 1016.8 0.0
22/08:30pm 21.7 21.8 17.5 77 2.6 NNE 13 15 7 8 1016.5 - 0.0
22/08:00pm 21.7 21.8 17.5 77 2.6 NNE 13 13 7 7 1016.3 - 0.0
22/07:30pm 22.5 23.4 18.3 77 2.6 NNE 11 13 6 7 1015.9 - 0.0
22/07:00pm 22.9 23.8 18.4 76 2.8 NE 11 13 6 7 1015.7 - 0.0
22/06:30pm 23.3 23.7 18.2 73 3.2 NNE 13 15 7 8 1015.4 - 0.0
22/06:00pm 23.8 23.7 17.8 69 3.7 NNE 15 19 8 10 1015.2 1015.2 0.0
22/05:30pm 24.5 23.3 17.5 65 4.4 NE 20 24 11 13 1014.9 - 0.0
22/05:00pm 25.0 23.2 17.0 61 5.0 NE 22 28 12 15 1014.7 - 0.0
22/04:30pm 24.8 23.3 17.8 65 4.4 NE 22 24 12 13 1014.4 - 0.0
22/04:00pm 24.9 23.4 17.6 64 4.6 NE 22 24 12 13 1014.2 - 0.0
22/03:30pm 25.5 23.3 16.9 59 5.3 ENE 24 26 13 14 1014.1 - 0.0
22/03:00pm 25.8 23.7 17.2 59 5.4 ENE 24 28 13 15 1014.2 1014.2 0.0
22/02:30pm 25.7 23.6 17.1 59 5.3 ENE 24 28 13 15 1014.3 - 0.0
22/02:00pm 25.7 23.1 16.0 55 5.9 ENE 24 28 13 15 1014.3 - 0.0
22/01:30pm 25.7 22.3 14.8 51 6.5 ENE 26 32 14 17 1014.6 - 0.0
22/01:00pm 25.7 21.9 14.8 51 6.5 ENE 28 32 15 17 1015.0 - 0.0
22/12:30pm 25.6 20.2 12.1 43 7.7 ENE 32 37 17 20 1015.4 - 0.0
22/12:00pm 25.3 19.7 11.5 42 7.8 ENE 32 35 17 19 1015.8 1015.8 0.0
22/11:30am 25.1 20.6 12.7 46 7.2 ENE 28 33 15 18 1016.4 - 0.0
22/11:00am 25.0 19.1 11.2 42 7.8 E 33 41 18 22 1016.7 - 0.0
22/10:30am 24.8 18.3 11.7 44 7.4 E 37 43 20 23 1017.1 - 0.0
22/10:00am 24.3 17.3 11.3 44 7.3 E 39 46 21 25 1017.3 - 0.0
22/09:30am 24.1 16.9 11.8 46 7.0 ENE 41 50 22 27 1017.4 - 0.0
22/09:00am 24.0 16.2 9.9 41 7.7 E 41 48 22 26 1017.2 1017.2 0.0
22/08:30am 23.7 16.0 10.0 42 7.5 E 41 48 22 26 1017.2 - 0.0
22/08:00am 23.9 15.5 9.5 40 7.8 E 44 54 24 29 1016.9 - 0.0
22/07:30am 23.7 15.5 10.4 43 7.3 E 44 52 24 28 1016.7 - 0.0
22/07:00am 23.5 15.4 10.2 43 7.3 E 43 50 23 27 1016.4 - 0.0
22/06:30am 23.3 16.2 11.0 46 6.8 E 39 46 21 25 1016.3 - 0.0
22/06:00am 23.4 16.2 11.8 48 6.5 E 41 46 22 25 1016.3 1016.3 0.0
22/05:30am 23.6 16.6 11.3 46 6.9 E 39 48 21 26 1016.0 - 0.0
22/05:00am 23.5 17.2 13.4 53 5.9 E 39 46 21 25 1016.1 - 0.0
22/04:30am 23.6 17.0 12.6 50 6.3 E 39 46 21 25 1016.1 - 0.0
22/04:00am 23.5 17.1 11.9 48 6.6 E 37 43 20 23 1016.2 - 0.0
22/03:30am 23.4 16.2 11.8 48 6.5 E 41 46 22 25 1016.0 - 0.0
22/03:00am 23.0 18.0 15.1 61 4.7 E 35 41 19 22 1016.2 1016.2 0.0
22/02:30am 22.8 19.3 17.5 72 3.3 E 32 37 17 20 1016.5 - 0.0
22/02:00am 22.8 20.7 18.1 75 2.9 E 26 30 14 16 1016.7 - 0.0
22/01:30am 22.6 21.7 19.0 80 2.3 E 22 24 12 13 1016.9 - 0.0
22/01:00am 22.5 22.5 19.7 84 1.8 E 19 20 10 11 1017.2 - 0.0
22/12:30am 22.6 23.0 19.9 85 1.7 E 17 19 9 10 1017.2 - 0.0
22/12:00am 22.3 21.7 18.5 79 2.4 NE 19 20 10 11 1017.4 1017.4 0.0
 
Date/Time
WST
Temp
°C
App
Temp
°C
Dew
Point
°C
Rel
Hum
%
Delta-T
°C
Wind Press
QNH
hPa
Press
MSL
hPa
Rain since
9am
mm
Dir  Spd
km/h
Gust
km/h
Spd
kts
Gust
kts
21/11:30pm 22.4 21.7 18.6 79 2.4 NE 20 22 11 12 1017.6 - 0.0
21/11:00pm 22.2 21.6 18.4 79 2.4 NE 19 20 10 11 1017.7 - 0.0
21/10:30pm 22.9 22.1 18.4 76 2.8 ENE 20 22 11 12 1017.8 - 0.0
21/10:00pm 22.4 21.7 18.2 77 2.6 NE 19 24 10 13 1017.9 - 0.0
21/09:30pm 22.8 21.7 17.7 73 3.2 NNE 20 24 11 13 1017.6 - 0.0
21/09:00pm 23.0 20.9 17.2 70 3.6 NE 24 28 13 15 1017.4 1017.4 0.0
21/08:30pm 23.4 20.9 17.2 68 3.8 NE 26 30 14 16 1017.2 - 0.0
21/08:00pm 23.9 20.5 16.7 64 4.4 NE 30 37 16 20 1017.0 - 0.0
21/07:30pm 24.2 20.1 16.5 62 4.7 NE 33 41 18 22 1016.9 - 0.0
21/07:00pm 24.2 19.6 16.2 61 4.9 NE 35 41 19 22 1016.5 - 0.0
21/06:30pm 24.4 19.1 15.3 57 5.5 NE 37 44 20 24 1016.2 - 0.0
21/06:00pm 24.5 19.4 14.9 55 5.7 NE 35 43 19 23 1015.8 1015.8 0.0
21/05:30pm 24.6 19.0 14.4 53 6.0 NE 37 43 20 23 1015.5 - 0.0
21/05:00pm 25.2 18.8 13.1 47 7.0 NE 39 44 21 24 1015.2 - 0.0
21/04:30pm 25.1 21.8 15.1 53 6.0 NE 26 30 14 16 1015.2 - 0.0
21/04:00pm 25.0 21.3 15.0 53 6.0 NE 28 32 15 17 1015.0 - 0.0
21/03:30pm 25.3 20.3 13.5 48 6.9 NE 32 37 17 20 1015.0 - 0.0
21/03:00pm 25.6 20.8 12.8 45 7.4 ENE 30 37 16 20 1015.3 1015.3 0.0
21/02:30pm 25.8 20.7 13.6 47 7.2 ENE 33 39 18 21 1015.2 - 0.0
21/02:00pm 25.8 19.5 11.2 40 8.2 ENE 35 43 19 23 1015.3 - 0.0
21/01:30pm 25.5 19.4 11.7 42 7.9 ENE 35 41 19 22 1015.6 - 0.0
21/01:00pm 25.7 20.2 11.8 42 7.9 E 32 37 17 20 1016.0 - 0.0
21/12:30pm 25.4 18.8 10.1 38 8.5 ENE 35 41 19 22 1016.3 - 0.0
21/12:00pm 25.4 18.8 8.4 34 9.1 E 33 43 18 23 1016.7 1016.7 0.0
21/11:30am 25.4 19.0 8.4 34 9.1 E 32 37 17 20 1017.2 - 0.0
21/11:00am 24.4 18.0 8.4 36 8.5 E 32 37 17 20 1017.7 - 0.0
21/10:30am 23.9 16.5 6.7 33 8.9 E 35 43 19 23 1018.2 - 0.0
21/10:00am 23.7 16.0 6.9 34 8.7 E 37 41 20 22 1018.4 - 0.0

Other Formats:

Comma delimited format used in spreadsheet applications
http://www.bom.gov.au/fwo/IDW60801/IDW60801.95304.axf

JavaScript Object Notation format (JSON) in row-major order
http://www.bom.gov.au/fwo/IDW60801/IDW60801.95304.json